Time;durP1;ratioP1;P1;durP2;ratioP2;P2;SDS_P1;SDS_P2;PMS_P1;PMS_P2;Temp;Humidity;BMP_temperature;BMP_pressure;BME280_temperature;BME280_humidity;BME280_pressure;Samples;Min_cycle;Max_cycle;Signal;HPM_P1;HPM_P2
2021/08/14 00:00:20;;;;;;;8.90;8.00;;;20.30;79.20;;;;;;6246083;28;20916;-78
2021/08/14 00:03:22;;;;;;;10.00;7.28;;;20.30;79.00;;;;;;6246217;28;20490;-79
2021/08/14 00:06:24;;;;;;;11.23;8.05;;;20.30;78.90;;;;;;6247391;28;20435;-78
2021/08/14 00:09:26;;;;;;;10.77;7.78;;;20.30;78.70;;;;;;6247269;28;20461;-78
2021/08/14 00:12:30;;;;;;;9.15;7.85;;;20.20;78.80;;;;;;6247346;28;20418;-78
2021/08/14 00:15:31;;;;;;;13.27;9.27;;;20.20;78.80;;;;;;6249978;28;20416;-78
2021/08/14 00:18:33;;;;;;;10.55;8.60;;;20.20;78.90;;;;;;6252349;28;20482;-77
2021/08/14 00:21:35;;;;;;;11.03;8.63;;;20.10;78.70;;;;;;6252101;28;20466;-78
2021/08/14 00:24:37;;;;;;;11.63;7.43;;;20.10;78.60;;;;;;6251781;28;20498;-77
2021/08/14 00:27:40;;;;;;;12.25;8.10;;;20.00;78.90;;;;;;6251699;28;20469;-78
2021/08/14 00:30:42;;;;;;;11.20;8.15;;;20.00;79.00;;;;;;6251483;28;20453;-79
2021/08/14 00:33:53;;;;;;;11.70;7.55;;;19.90;79.30;;;;;;6252273;28;20493;-78
2021/08/14 00:36:55;;;;;;;11.23;8.10;;;19.80;79.50;;;;;;6248510;28;20453;-78
2021/08/14 00:39:56;;;;;;;11.35;8.00;;;19.90;79.60;;;;;;6249754;28;20469;-78
2021/08/14 00:43:00;;;;;;;11.32;7.28;;;19.80;80.10;;;;;;6251580;28;23728;-78
2021/08/14 00:46:02;;;;;;;8.50;7.53;;;19.80;79.60;;;;;;6251353;28;20561;-78
2021/08/14 00:49:04;;;;;;;10.18;7.47;;;19.80;79.80;;;;;;6250348;28;20447;-77
2021/08/14 00:52:06;;;;;;;8.20;7.07;;;19.80;79.70;;;;;;6249314;28;20897;-78
2021/08/14 00:55:09;;;;;;;9.77;7.30;;;19.80;79.60;;;;;;6250215;28;20473;-78
2021/08/14 00:58:13;;;;;;;8.40;6.77;;;19.80;79.40;;;;;;6250813;28;20466;-78
2021/08/14 01:01:16;;;;;;;10.25;7.30;;;19.80;79.30;;;;;;6250515;28;20429;-78
2021/08/14 01:04:18;;;;;;;9.30;7.93;;;19.80;78.70;;;;;;6248810;28;20419;-77
2021/08/14 01:07:20;;;;;;;9.63;7.93;;;19.80;78.90;;;;;;6247040;28;20495;-77
2021/08/14 01:10:23;;;;;;;8.20;6.78;;;19.80;79.40;;;;;;6247877;28;20433;-77
2021/08/14 01:13:26;;;;;;;7.70;6.65;;;19.80;79.60;;;;;;6247218;28;20502;-77
2021/08/14 01:16:29;;;;;;;9.32;7.72;;;19.70;79.50;;;;;;6246939;28;20450;-77
2021/08/14 01:19:31;;;;;;;11.30;7.28;;;19.80;79.40;;;;;;6247180;28;20426;-78
2021/08/14 01:22:35;;;;;;;10.40;7.55;;;19.70;79.00;;;;;;6247296;28;21158;-78
2021/08/14 01:25:37;;;;;;;7.53;6.55;;;19.70;79.00;;;;;;6247315;28;20426;-78
2021/08/14 01:28:42;;;;;;;8.52;7.72;;;19.70;79.00;;;;;;6247170;28;20541;-78
2021/08/14 01:31:44;;;;;;;10.23;7.75;;;19.60;79.10;;;;;;6247053;28;20419;-78
2021/08/14 01:34:48;;;;;;;10.32;7.88;;;19.50;79.50;;;;;;6246554;28;20469;-77
2021/08/14 01:37:50;;;;;;;10.48;8.48;;;19.50;79.40;;;;;;6246387;28;20796;-78
2021/08/14 01:40:52;;;;;;;10.85;7.80;;;19.50;79.40;;;;;;6245809;28;20415;-77
2021/08/14 01:43:57;;;;;;;9.90;7.40;;;19.40;79.30;;;;;;6246354;28;20454;-77
2021/08/14 01:47:00;;;;;;;9.07;7.37;;;19.40;79.20;;;;;;6246110;28;20877;-77
2021/08/14 01:50:02;;;;;;;10.68;7.40;;;19.30;79.50;;;;;;6247105;28;20580;-77
2021/08/14 01:53:04;;;;;;;11.38;7.80;;;19.30;79.60;;;;;;6246878;28;20506;-77
2021/08/14 01:56:06;;;;;;;14.10;7.87;;;19.20;79.80;;;;;;6246318;28;20502;-78
2021/08/14 01:59:09;;;;;;;11.77;7.63;;;19.20;80.00;;;;;;6246868;28;20490;-77
2021/08/14 02:02:11;;;;;;;9.73;6.90;;;19.20;79.80;;;;;;6246621;28;20639;-78
2021/08/14 02:05:13;;;;;;;9.05;7.10;;;19.10;79.90;;;;;;6246350;28;20484;-77
2021/08/14 02:08:15;;;;;;;10.67;8.17;;;19.10;79.70;;;;;;6245437;28;21132;-76
2021/08/14 02:11:18;;;;;;;10.65;7.47;;;19.10;79.80;;;;;;6245903;28;20920;-77
2021/08/14 02:14:22;;;;;;;17.42;7.80;;;19.10;80.60;;;;;;6246174;28;20474;-76
2021/08/14 02:17:24;;;;;;;9.43;7.63;;;19.10;79.70;;;;;;6245536;28;20484;-77
2021/08/14 02:20:25;;;;;;;7.72;6.93;;;19.10;79.50;;;;;;6245946;28;20570;-78
2021/08/14 02:23:27;;;;;;;9.97;7.20;;;19.10;79.50;;;;;;6245560;28;20501;-76
2021/08/14 02:26:29;;;;;;;7.88;7.07;;;19.10;79.10;;;;;;6245803;28;20584;-76
2021/08/14 02:29:33;;;;;;;10.10;7.57;;;19.10;79.10;;;;;;6245370;28;21044;-77
2021/08/14 02:32:35;;;;;;;8.73;7.07;;;19.10;79.10;;;;;;6245468;28;21038;-77
2021/08/14 02:35:37;;;;;;;9.73;6.53;;;19.00;79.10;;;;;;6244880;28;20455;-77
2021/08/14 02:38:40;;;;;;;8.55;6.57;;;19.00;79.40;;;;;;6245168;28;20469;-76
2021/08/14 02:41:42;;;;;;;9.93;6.13;;;19.00;79.00;;;;;;6244664;28;20431;-77
2021/08/14 02:44:45;;;;;;;11.30;6.85;;;19.10;78.90;;;;;;6245671;28;20938;-77
2021/08/14 02:47:47;;;;;;;10.35;7.43;;;19.10;78.40;;;;;;6245258;28;20449;-77
2021/08/14 02:50:49;;;;;;;8.90;7.47;;;19.10;77.90;;;;;;6245584;28;20573;-76
2021/08/14 02:53:51;;;;;;;8.65;7.22;;;19.00;79.30;;;;;;6245728;28;20527;-76
2021/08/14 02:56:52;;;;;;;8.10;6.57;;;19.00;78.80;;;;;;6244836;28;20506;-77
2021/08/14 02:59:56;;;;;;;7.22;6.53;;;19.00;78.60;;;;;;6245325;28;20504;-76
2021/08/14 03:02:57;;;;;;;8.13;6.15;;;19.10;78.50;;;;;;6245010;28;20992;-77
2021/08/14 03:05:59;;;;;;;9.65;6.63;;;19.10;78.10;;;;;;6231981;23;20432;-75
2021/08/14 03:09:01;;;;;;;9.93;7.43;;;19.10;78.10;;;;;;6171732;28;20506;-75
2021/08/14 03:12:03;;;;;;;8.82;7.25;;;19.10;78.10;;;;;;6171821;28;20503;-75
2021/08/14 03:15:08;;;;;;;7.40;6.70;;;19.00;78.30;;;;;;6171874;28;20466;-75
2021/08/14 03:18:10;;;;;;;9.73;7.18;;;19.00;78.10;;;;;;6171898;28;20435;-74
2021/08/14 03:21:12;;;;;;;11.13;7.53;;;19.00;77.80;;;;;;6171810;28;20432;-75
2021/08/14 03:24:13;;;;;;;7.27;6.50;;;19.00;78.00;;;;;;6171761;28;20427;-75
2021/08/14 03:27:15;;;;;;;9.45;7.60;;;19.00;78.10;;;;;;6176359;28;20500;-76
2021/08/14 03:30:20;;;;;;;10.15;7.05;;;18.90;78.50;;;;;;6196152;28;20434;-75
2021/08/14 03:33:21;;;;;;;8.13;6.68;;;18.80;78.70;;;;;;6195465;28;20938;-75
2021/08/14 03:36:23;;;;;;;8.02;6.63;;;18.80;78.90;;;;;;6195334;28;20485;-75
2021/08/14 03:39:25;;;;;;;8.52;6.75;;;18.80;78.60;;;;;;6195306;28;20430;-75
2021/08/14 03:42:27;;;;;;;11.75;7.57;;;18.80;78.60;;;;;;6194363;28;20998;-75
2021/08/14 03:45:30;;;;;;;7.80;6.63;;;18.80;78.40;;;;;;6195318;28;20497;-75
2021/08/14 03:48:32;;;;;;;9.70;6.93;;;18.80;78.10;;;;;;6195233;28;20450;-75
2021/08/14 03:51:34;;;;;;;7.77;6.93;;;18.70;77.80;;;;;;6199208;28;20569;-75
2021/08/14 03:54:36;;;;;;;10.88;6.50;;;18.70;77.80;;;;;;6200298;28;20521;-75
2021/08/14 03:57:38;;;;;;;9.18;6.82;;;18.70;77.80;;;;;;6199735;28;20429;-75
2021/08/14 04:00:41;;;;;;;9.38;6.70;;;18.70;78.10;;;;;;6199720;28;20425;-75
2021/08/14 04:03:43;;;;;;;10.18;6.57;;;18.60;78.30;;;;;;6200022;28;20911;-74
2021/08/14 04:06:45;;;;;;;7.40;5.70;;;18.60;78.10;;;;;;6199274;28;20490;-75
2021/08/14 04:09:46;;;;;;;8.75;7.03;;;18.60;77.70;;;;;;6200444;28;20442;-75
2021/08/14 04:12:49;;;;;;;8.80;6.20;;;18.50;77.60;;;;;;6199510;28;20512;-75
2021/08/14 04:15:52;;;;;;;10.40;6.28;;;18.50;77.70;;;;;;6199295;28;20788;-75
2021/08/14 04:18:54;;;;;;;7.95;7.10;;;18.40;77.70;;;;;;6199363;28;20513;-74
2021/08/14 04:21:56;;;;;;;8.17;6.97;;;18.40;78.10;;;;;;6200029;28;20470;-75
2021/08/14 04:24:58;;;;;;;7.53;6.45;;;18.40;78.50;;;;;;6199632;28;20430;-76
2021/08/14 04:28:00;;;;;;;7.97;6.45;;;18.30;78.30;;;;;;6198920;28;20446;-75
2021/08/14 04:31:03;;;;;;;7.72;6.57;;;18.40;78.70;;;;;;6199731;28;20411;-75
2021/08/14 04:34:05;;;;;;;8.15;6.82;;;18.40;78.40;;;;;;6199355;28;20474;-75
2021/08/14 04:37:06;;;;;;;11.00;6.85;;;18.40;78.50;;;;;;6198736;28;20769;-75
2021/08/14 04:40:10;;;;;;;9.30;6.47;;;18.40;78.20;;;;;;6198750;28;20427;-75
2021/08/14 04:43:12;;;;;;;9.50;6.75;;;18.40;78.30;;;;;;6197476;28;20418;-76
2021/08/14 04:46:15;;;;;;;9.57;6.27;;;18.30;79.10;;;;;;6198797;28;20535;-75
2021/08/14 04:49:17;;;;;;;9.20;6.30;;;18.40;78.70;;;;;;6198815;28;20445;-75
2021/08/14 04:52:19;;;;;;;9.75;7.03;;;18.50;78.00;;;;;;6198513;28;20927;-75
2021/08/14 04:55:21;;;;;;;11.15;7.07;;;18.50;78.00;;;;;;6198747;28;20450;-75
2021/08/14 04:58:23;;;;;;;7.05;6.28;;;18.50;78.10;;;;;;6198969;28;20435;-75
2021/08/14 05:01:26;;;;;;;8.57;6.95;;;18.60;78.20;;;;;;6198419;28;20464;-75
2021/08/14 05:04:28;;;;;;;7.57;6.43;;;18.70;77.80;;;;;;6198421;28;20422;-75
2021/08/14 05:07:30;;;;;;;11.40;6.70;;;18.80;77.30;;;;;;6197538;28;20422;-75
2021/08/14 05:10:31;;;;;;;8.80;6.07;;;18.90;77.00;;;;;;6198975;28;20581;-75
2021/08/14 05:13:33;;;;;;;7.85;6.80;;;19.00;76.80;;;;;;6198173;28;20430;-75
2021/08/14 05:16:37;;;;;;;10.25;6.70;;;19.20;76.70;;;;;;6197765;28;20570;-75
2021/08/14 05:19:39;;;;;;;11.98;6.30;;;19.30;76.30;;;;;;6197867;28;20423;-75
2021/08/14 05:22:40;;;;;;;8.40;6.75;;;19.40;76.10;;;;;;6197863;28;20577;-75
2021/08/14 05:25:42;;;;;;;9.15;7.45;;;19.50;75.90;;;;;;6198022;28;20564;-74
2021/08/14 05:28:44;;;;;;;10.83;6.33;;;19.60;75.80;;;;;;6197595;28;20465;-75
2021/08/14 05:31:47;;;;;;;8.93;7.00;;;19.80;75.40;;;;;;6197528;28;20473;-75
2021/08/14 05:34:49;;;;;;;11.40;6.93;;;20.00;75.20;;;;;;6197375;28;20496;-76
2021/08/14 05:37:51;;;;;;;7.13;6.43;;;20.20;74.80;;;;;;6197720;28;20484;-75
2021/08/14 05:40:53;;;;;;;6.35;5.75;;;20.50;74.30;;;;;;6197142;28;20450;-75
2021/08/14 05:43:55;;;;;;;9.35;6.30;;;20.70;73.70;;;;;;6195846;28;20676;-74
2021/08/14 05:46:58;;;;;;;7.43;6.25;;;21.00;73.60;;;;;;6196655;28;20452;-75
2021/08/14 05:50:00;;;;;;;9.37;7.00;;;21.20;73.20;;;;;;6197692;28;20473;-75
2021/08/14 05:53:02;;;;;;;8.32;6.35;;;21.40;72.70;;;;;;6197088;28;20520;-75
2021/08/14 05:56:04;;;;;;;8.60;6.45;;;21.60;72.30;;;;;;6196561;28;20422;-75
2021/08/14 05:59:05;;;;;;;8.68;6.47;;;21.90;71.80;;;;;;6197207;28;20508;-75
2021/08/14 06:02:09;;;;;;;8.30;5.88;;;22.20;71.10;;;;;;6197080;28;20442;-75
2021/08/14 06:05:11;;;;;;;9.35;6.60;;;22.30;70.60;;;;;;6188143;28;20446;-76
2021/08/14 06:08:13;;;;;;;9.37;6.43;;;22.60;70.30;;;;;;6187876;28;20505;-76
2021/08/14 06:11:15;;;;;;;8.43;6.10;;;22.80;69.90;;;;;;6191770;28;20498;-75
2021/08/14 06:14:16;;;;;;;9.13;6.05;;;23.00;69.40;;;;;;6172244;28;20494;-76
2021/08/14 06:17:20;;;;;;;10.77;6.22;;;23.30;68.40;;;;;;6172248;28;20422;-76
2021/08/14 06:20:22;;;;;;;7.90;6.83;;;23.50;68.40;;;;;;6172317;28;20524;-75
2021/08/14 06:23:23;;;;;;;7.65;6.57;;;23.60;68.00;;;;;;6172280;28;20454;-76
2021/08/14 06:26:25;;;;;;;11.77;6.95;;;23.80;68.40;;;;;;6172196;28;20491;-75
2021/08/14 06:29:27;;;;;;;9.65;6.78;;;24.10;67.00;;;;;;6194773;28;20537;-76
2021/08/14 06:32:30;;;;;;;9.30;7.32;;;24.40;65.90;;;;;;6196235;28;20883;-76
2021/08/14 06:35:32;;;;;;;9.17;7.00;;;24.70;65.50;;;;;;6188994;28;20594;-76
2021/08/14 06:38:35;;;;;;;9.03;7.73;;;24.90;65.30;;;;;;6172633;28;21080;-76
2021/08/14 06:41:37;;;;;;;7.90;7.00;;;25.10;64.20;;;;;;6172119;28;20430;-75
2021/08/14 06:44:39;;;;;;;9.27;7.55;;;25.40;63.60;;;;;;6170129;28;20976;-76
2021/08/14 06:47:42;;;;;;;10.27;6.88;;;25.60;62.60;;;;;;6179815;28;20426;-76
2021/08/14 06:50:43;;;;;;;9.20;7.53;;;25.80;62.50;;;;;;6196270;28;20469;-76
2021/08/14 06:53:48;;;;;;;11.20;8.15;;;26.00;61.40;;;;;;6196361;28;20974;-75
2021/08/14 06:56:49;;;;;;;11.48;7.85;;;26.20;61.00;;;;;;6195589;28;20425;-76
2021/08/14 06:59:51;;;;;;;13.82;7.97;;;26.40;61.30;;;;;;6196034;28;20825;-77
2021/08/14 07:02:54;;;;;;;11.60;8.02;;;26.60;61.90;;;;;;6196078;28;20800;-76
2021/08/14 07:05:56;;;;;;;9.17;7.40;;;26.70;60.90;;;;;;6196145;28;20493;-77
2021/08/14 07:08:58;;;;;;;11.27;7.53;;;26.90;60.10;;;;;;6196732;28;20626;-77
2021/08/14 07:12:00;;;;;;;10.15;8.48;;;27.10;59.60;;;;;;6195556;28;20993;-76
2021/08/14 07:15:01;;;;;;;9.73;7.55;;;27.20;59.20;;;;;;6192581;28;20787;-76
2021/08/14 07:18:05;;;;;;;10.07;7.45;;;27.40;59.20;;;;;;6172510;28;20467;-77
2021/08/14 07:21:06;;;;;;;8.30;7.30;;;27.60;58.30;;;;;;6191548;28;20418;-77
2021/08/14 07:24:08;;;;;;;13.52;6.80;;;27.80;57.70;;;;;;6198408;28;20426;-78
2021/08/14 07:27:10;;;;;;;7.75;6.53;;;27.90;57.40;;;;;;6197814;28;20447;-77
2021/08/14 07:30:13;;;;;;;8.60;7.35;;;28.10;56.20;;;;;;6177218;28;20523;-77
2021/08/14 07:33:17;;;;;;;11.85;6.47;;;28.30;55.20;;;;;;6197037;28;20876;-77
2021/08/14 07:36:19;;;;;;;9.03;6.43;;;28.40;54.50;;;;;;6200517;28;20511;-77
2021/08/14 07:39:20;;;;;;;9.48;6.40;;;28.50;53.80;;;;;;6200255;28;20505;-76
2021/08/14 07:42:22;;;;;;;7.78;7.00;;;28.50;53.50;;;;;;6201828;28;20505;-77
2021/08/14 07:45:24;;;;;;;8.82;7.03;;;28.60;53.40;;;;;;6198827;28;20461;-77
2021/08/14 07:48:27;;;;;;;9.45;6.50;;;28.70;53.60;;;;;;6200082;28;20422;-77
2021/08/14 07:51:29;;;;;;;11.82;7.18;;;28.70;53.10;;;;;;6200585;28;20450;-77
2021/08/14 07:54:31;;;;;;;8.57;6.05;;;28.90;52.90;;;;;;6200712;28;20481;-77
2021/08/14 07:57:33;;;;;;;7.32;6.55;;;29.20;52.30;;;;;;6199897;28;20574;-77
2021/08/14 08:00:35;;;;;;;10.63;6.28;;;29.40;51.80;;;;;;6200549;28;20446;-77
2021/08/14 08:03:38;;;;;;;7.80;6.88;;;29.60;51.40;;;;;;6203894;28;20488;-78
2021/08/14 08:06:40;;;;;;;11.10;6.63;;;29.70;50.80;;;;;;6203238;28;21011;-77
2021/08/14 08:09:42;;;;;;;11.25;6.88;;;29.80;50.00;;;;;;6205116;28;21002;-77
2021/08/14 08:12:44;;;;;;;7.32;5.93;;;30.00;49.90;;;;;;6205858;28;20484;-76
2021/08/14 08:15:45;;;;;;;7.40;6.60;;;30.20;49.40;;;;;;6206065;28;20422;-78
2021/08/14 08:18:49;;;;;;;10.43;6.60;;;30.40;49.40;;;;;;6207767;28;20438;-78
2021/08/14 08:21:50;;;;;;;10.18;6.07;;;30.50;47.70;;;;;;6209370;28;20521;-78
2021/08/14 08:24:52;;;;;;;13.48;6.25;;;30.60;48.30;;;;;;6208784;28;20964;-78
2021/08/14 08:27:55;;;;;;;9.00;5.93;;;30.80;47.60;;;;;;6209053;28;20450;-77
2021/08/14 08:30:57;;;;;;;14.02;6.55;;;31.00;46.90;;;;;;6208498;28;20774;-78
2021/08/14 08:34:01;;;;;;;9.20;6.28;;;31.10;46.00;;;;;;6210046;28;20505;-77
2021/08/14 08:37:03;;;;;;;7.43;5.97;;;31.20;46.50;;;;;;6208762;28;20814;-77
2021/08/14 08:40:07;;;;;;;9.55;5.72;;;31.40;45.10;;;;;;6209265;28;21155;-78
2021/08/14 08:43:09;;;;;;;7.07;6.38;;;31.30;45.90;;;;;;6210317;28;20430;-78
2021/08/14 08:46:11;;;;;;;10.10;5.93;;;31.40;45.00;;;;;;6202592;28;20434;-77
2021/08/14 08:49:17;;;;;;;8.47;6.10;;;31.50;44.60;;;;;;6203024;28;20530;-77
2021/08/14 08:52:20;;;;;;;14.37;5.60;;;31.60;43.80;;;;;;6203937;28;20888;-77
2021/08/14 08:55:23;;;;;;;8.90;5.72;;;31.50;44.30;;;;;;6203017;28;20426;-77
2021/08/14 08:58:25;;;;;;;5.63;5.10;;;31.60;45.20;;;;;;6199698;28;20919;-77
2021/08/14 09:01:26;;;;;;;9.18;6.10;;;31.50;43.30;;;;;;6199243;28;20462;-76
2021/08/14 09:04:31;;;;;;;7.57;5.53;;;31.30;44.70;;;;;;6199850;28;20462;-77
2021/08/14 09:07:33;;;;;;;6.03;4.72;;;31.40;44.90;;;;;;6243394;23;20491;-77
2021/08/14 09:10:35;;;;;;;7.18;5.25;;;31.70;44.60;;;;;;6223097;28;20443;-77
2021/08/14 09:13:39;;;;;;;7.82;5.28;;;31.90;43.80;;;;;;6222488;28;20555;-77
2021/08/14 09:16:41;;;;;;;7.23;5.40;;;31.90;44.00;;;;;;6224646;28;20421;-77
2021/08/14 09:19:44;;;;;;;7.22;6.03;;;32.10;42.60;;;;;;6214142;28;20423;-76
2021/08/14 09:23:01;;;;;;;5.75;4.38;;;32.20;43.00;;;;;;6199068;28;20438;-76
2021/08/14 09:26:06;;;;;;;8.40;5.70;;;32.40;42.30;;;;;;6222116;28;20472;-77
2021/08/14 09:29:08;;;;;;;8.35;5.30;;;32.60;42.10;;;;;;6222176;28;20479;-77
2021/08/14 09:32:12;;;;;;;5.60;5.00;;;32.60;41.50;;;;;;6221830;28;20891;-77
2021/08/14 09:35:26;;;;;;;8.75;5.47;;;32.60;41.80;;;;;;6221914;28;20917;-77
2021/08/14 09:38:39;;;;;;;5.45;4.65;;;32.90;41.00;;;;;;6222065;28;20519;-77
2021/08/14 09:41:41;;;;;;;9.98;5.95;;;33.10;40.30;;;;;;6221820;28;20448;-78
2021/08/14 09:44:43;;;;;;;5.78;4.53;;;33.20;39.80;;;;;;6221499;28;20508;-77
2021/08/14 09:47:46;;;;;;;8.73;5.68;;;33.20;40.20;;;;;;6219298;28;20826;-77
2021/08/14 09:50:49;;;;;;;9.67;5.53;;;33.30;40.20;;;;;;6221681;28;20479;-77
2021/08/14 09:53:54;;;;;;;6.82;5.10;;;33.30;40.00;;;;;;6221962;28;20439;-77
2021/08/14 09:56:56;;;;;;;7.97;5.30;;;33.30;41.40;;;;;;6220857;28;20428;-77
2021/08/14 10:00:00;;;;;;;7.38;5.32;;;33.40;40.10;;;;;;6221449;28;20417;-77
2021/08/14 10:03:04;;;;;;;6.63;5.30;;;33.60;39.00;;;;;;6221784;28;20439;-77
2021/08/14 10:06:10;;;;;;;8.05;5.35;;;34.10;38.10;;;;;;6221697;28;20519;-77
2021/08/14 10:09:12;;;;;;;7.47;5.20;;;34.20;38.10;;;;;;6222896;28;20471;-77
2021/08/14 10:12:16;;;;;;;5.88;5.32;;;34.00;38.40;;;;;;6222192;28;20433;-77
2021/08/14 10:15:19;;;;;;;6.13;5.53;;;33.90;37.80;;;;;;6220614;28;20425;-77
2021/08/14 10:18:21;;;;;;;6.72;4.97;;;34.00;38.50;;;;;;6221230;28;20562;-76
2021/08/14 10:21:26;;;;;;;8.40;5.57;;;34.00;38.10;;;;;;6220695;28;20456;-77
2021/08/14 10:24:35;;;;;;;9.40;6.47;;;34.20;38.50;;;;;;6220842;28;20513;-76
2021/08/14 10:27:54;;;;;;;6.38;5.78;;;34.20;37.50;;;;;;6220133;28;20773;-77
2021/08/14 10:30:56;;;;;;;8.63;5.47;;;34.10;38.20;;;;;;6220846;28;20440;-77
2021/08/14 10:33:59;;;;;;;9.70;6.28;;;34.20;38.40;;;;;;6220685;28;20483;-77
2021/08/14 10:37:20;;;;;;;6.60;5.60;;;34.50;37.80;;;;;;6220115;28;20445;-77
2021/08/14 10:40:22;;;;;;;8.80;5.88;;;34.60;37.70;;;;;;6220222;28;20751;-77
2021/08/14 10:43:58;;;;;;;6.88;5.88;;;34.70;37.80;;;;;;6220102;28;20443;-77
2021/08/14 10:47:00;;;;;;;6.82;5.85;;;35.00;36.30;;;;;;6219440;28;20405;-77
2021/08/14 10:50:01;;;;;;;6.78;5.57;;;35.10;37.10;;;;;;6219358;28;20562;-77
2021/08/14 10:53:20;;;;;;;8.55;5.82;;;35.20;37.00;;;;;;6219893;28;20412;-77
2021/08/14 10:56:50;;;;;;;9.85;6.30;;;35.40;36.40;;;;;;6220176;28;20432;-77
2021/08/14 11:00:01;;;;;;;8.95;5.90;;;35.40;36.30;;;;;;6219464;28;20493;-77
2021/08/14 11:03:09;;;;;;;10.02;6.22;;;35.60;36.00;;;;;;6220944;28;20401;-77
2021/08/14 11:06:27;;;;;;;6.30;5.32;;;35.70;35.90;;;;;;6220911;28;20865;-76
2021/08/14 11:09:32;;;;;;;6.30;5.20;;;35.90;36.10;;;;;;6219829;28;20416;-77
2021/08/14 11:12:35;;;;;;;8.68;6.03;;;36.10;35.30;;;;;;6220334;28;20778;-77
2021/08/14 11:15:40;;;;;;;10.98;5.40;;;36.20;35.50;;;;;;6219937;28;20556;-77
2021/08/14 11:18:56;;;;;;;7.80;5.63;;;36.20;36.10;;;;;;6220704;28;20495;-77
2021/08/14 11:22:23;;;;;;;8.18;5.30;;;36.40;35.20;;;;;;6221079;28;20523;-76
2021/08/14 11:25:29;;;;;;;9.32;5.90;;;36.50;34.80;;;;;;6221542;28;20423;-78
2021/08/14 11:28:30;;;;;;;6.32;4.95;;;36.60;35.00;;;;;;6222617;28;20525;-78
2021/08/14 11:31:33;;;;;;;7.33;5.80;;;36.70;34.60;;;;;;6223557;28;20437;-78
2021/08/14 11:34:36;;;;;;;7.83;6.27;;;36.70;34.90;;;;;;6223518;28;20579;-78
2021/08/14 11:37:52;;;;;;;7.43;5.40;;;36.60;35.20;;;;;;6222841;28;20570;-79
2021/08/14 11:40:55;;;;;;;11.57;6.18;;;36.60;34.30;;;;;;6223079;28;20980;-78
2021/08/14 11:44:02;;;;;;;7.88;5.45;;;36.60;33.90;;;;;;6222036;28;20447;-78
2021/08/14 11:47:05;;;;;;;6.33;5.73;;;36.60;34.00;;;;;;6221649;28;20416;-78
2021/08/14 11:50:09;;;;;;;7.57;5.60;;;36.80;34.20;;;;;;6220734;28;20458;-78
2021/08/14 11:53:12;;;;;;;7.10;5.68;;;36.90;34.00;;;;;;6222611;28;20574;-78
2021/08/14 11:56:19;;;;;;;7.00;4.80;;;37.00;33.80;;;;;;6222236;28;20487;-78
2021/08/14 11:59:31;;;;;;;9.05;5.25;;;37.00;34.10;;;;;;6221608;28;20933;-78
2021/08/14 12:02:33;;;;;;;6.55;4.68;;;36.90;33.60;;;;;;6222897;28;20586;-78
2021/08/14 12:05:36;;;;;;;5.80;5.15;;;36.90;33.80;;;;;;6220919;28;20452;-78
2021/08/14 12:08:39;;;;;;;6.82;5.55;;;37.10;34.10;;;;;;6221273;28;20441;-78
2021/08/14 12:11:42;;;;;;;6.50;5.60;;;37.00;33.20;;;;;;6223775;28;20499;-78
2021/08/14 12:14:44;;;;;;;7.72;4.95;;;36.90;33.50;;;;;;6226184;28;20865;-78
2021/08/14 12:17:46;;;;;;;8.77;5.27;;;37.10;33.80;;;;;;6226271;28;20460;-78
2021/08/14 12:20:47;;;;;;;5.95;5.32;;;37.40;33.40;;;;;;6225932;28;20989;-78
2021/08/14 12:24:04;;;;;;;8.63;5.10;;;37.50;32.70;;;;;;6226786;28;20507;-78
2021/08/14 12:27:22;;;;;;;6.93;5.47;;;37.60;33.30;;;;;;6225716;28;20437;-78
2021/08/14 12:30:25;;;;;;;7.43;5.40;;;37.70;32.90;;;;;;6227162;28;20903;-78
2021/08/14 12:33:28;;;;;;;6.43;5.70;;;37.70;33.40;;;;;;6226331;28;20415;-78
2021/08/14 12:36:36;;;;;;;6.63;5.95;;;37.80;33.40;;;;;;6225571;28;20510;-78
2021/08/14 12:39:51;;;;;;;8.52;5.53;;;37.90;33.10;;;;;;6226342;28;20413;-79
2021/08/14 12:42:54;;;;;;;7.05;5.57;;;37.90;33.40;;;;;;6226442;28;20548;-78
2021/08/14 12:45:56;;;;;;;9.40;5.87;;;37.90;33.50;;;;;;6225886;28;20438;-78
2021/08/14 12:49:18;;;;;;;7.60;5.55;;;37.80;33.30;;;;;;6225000;28;20447;-78
2021/08/14 12:52:19;;;;;;;9.67;5.80;;;37.40;33.60;;;;;;6225229;28;20417;-78
2021/08/14 12:55:27;;;;;;;9.52;6.18;;;37.40;34.10;;;;;;6225745;28;20472;-78
2021/08/14 12:58:32;;;;;;;7.10;6.00;;;37.60;34.20;;;;;;6226200;28;20436;-78
2021/08/14 13:01:34;;;;;;;8.73;6.20;;;37.80;34.20;;;;;;6225299;28;20413;-78
2021/08/14 13:04:37;;;;;;;10.30;5.70;;;37.90;33.40;;;;;;6226777;28;20413;-78
2021/08/14 13:07:39;;;;;;;6.50;5.73;;;37.90;33.70;;;;;;6227062;28;20420;-78
2021/08/14 13:10:43;;;;;;;7.28;5.93;;;37.90;34.00;;;;;;6227010;28;20526;-78
2021/08/14 13:13:47;;;;;;;7.07;6.38;;;38.00;34.00;;;;;;6224453;28;20432;-78
2021/08/14 13:16:48;;;;;;;10.00;6.35;;;37.80;34.00;;;;;;6226331;28;20945;-78
2021/08/14 13:19:50;;;;;;;7.10;6.00;;;37.70;34.20;;;;;;6225331;28;20495;-78
2021/08/14 13:22:53;;;;;;;8.93;6.00;;;37.70;35.60;;;;;;6224434;28;20515;-78
2021/08/14 13:25:56;;;;;;;6.53;5.65;;;37.70;35.30;;;;;;6226007;28;20440;-78
2021/08/14 13:28:59;;;;;;;7.05;5.25;;;37.80;34.70;;;;;;6226835;28;20563;-78
2021/08/14 13:32:01;;;;;;;8.25;5.72;;;37.90;34.80;;;;;;6227727;28;20428;-79
2021/08/14 13:35:03;;;;;;;9.65;6.22;;;38.00;34.50;;;;;;6227823;28;20413;-79
2021/08/14 13:38:05;;;;;;;8.38;6.20;;;38.10;34.50;;;;;;6227371;28;20437;-79
2021/08/14 13:41:09;;;;;;;7.95;6.47;;;38.20;33.60;;;;;;6227560;28;20498;-79
2021/08/14 13:44:12;;;;;;;7.57;5.57;;;38.20;33.50;;;;;;6227458;28;20539;-79
2021/08/14 13:47:14;;;;;;;9.82;5.93;;;38.10;34.00;;;;;;6226380;28;20436;-78
2021/08/14 13:50:15;;;;;;;6.82;5.63;;;38.20;33.20;;;;;;6220848;28;20988;-79
2021/08/14 13:53:17;;;;;;;17.25;5.90;;;38.50;32.20;;;;;;6221937;28;20743;-79
2021/08/14 13:56:19;;;;;;;8.85;5.88;;;38.60;32.50;;;;;;6225264;28;20467;-79
2021/08/14 13:59:22;;;;;;;10.07;5.85;;;38.50;32.10;;;;;;6227418;28;20441;-79
2021/08/14 14:02:24;;;;;;;9.55;6.40;;;38.50;33.20;;;;;;6227327;28;20798;-79
2021/08/14 14:05:26;;;;;;;6.00;5.40;;;38.50;31.10;;;;;;6226300;28;20559;-78
2021/08/14 14:08:28;;;;;;;7.38;5.40;;;38.50;30.60;;;;;;6225408;28;21045;-79
2021/08/14 14:11:30;;;;;;;6.22;4.90;;;38.50;30.80;;;;;;6226522;28;20488;-79
2021/08/14 14:14:33;;;;;;;8.38;5.57;;;38.60;31.30;;;;;;6209552;28;20469;-78
2021/08/14 14:17:35;;;;;;;6.30;5.63;;;38.70;31.50;;;;;;6201651;28;20983;-79
2021/08/14 14:20:38;;;;;;;8.20;5.90;;;38.60;32.00;;;;;;6201789;28;20415;-79
2021/08/14 14:23:40;;;;;;;7.95;5.82;;;38.50;31.70;;;;;;6201376;28;20472;-79
2021/08/14 14:26:42;;;;;;;6.97;5.30;;;38.30;30.80;;;;;;6201360;28;20874;-79
2021/08/14 14:29:45;;;;;;;7.32;5.47;;;38.20;30.20;;;;;;6202019;28;20537;-78
2021/08/14 14:32:47;;;;;;;10.00;5.50;;;38.10;31.50;;;;;;6201309;28;20875;-79
2021/08/14 14:35:49;;;;;;;5.93;5.32;;;38.30;31.30;;;;;;6200871;28;20520;-80
2021/08/14 14:38:51;;;;;;;8.27;5.17;;;38.20;30.90;;;;;;6200641;28;20520;-78
2021/08/14 14:41:52;;;;;;;8.02;5.55;;;38.10;31.40;;;;;;6200293;28;20457;-79
2021/08/14 14:44:56;;;;;;;6.55;5.63;;;38.00;32.30;;;;;;6200477;28;20479;-78
2021/08/14 14:47:57;;;;;;;7.90;5.90;;;38.00;32.40;;;;;;6200657;28;20531;-79
2021/08/14 14:51:00;;;;;;;5.80;5.10;;;38.20;32.60;;;;;;6201511;28;20429;-79
2021/08/14 14:54:04;;;;;;;9.73;5.22;;;38.10;32.00;;;;;;6224029;28;20424;-79
2021/08/14 14:57:07;;;;;;;7.00;5.68;;;37.90;31.80;;;;;;6224500;28;20460;-79
2021/08/14 15:00:11;;;;;;;11.05;5.80;;;37.70;32.10;;;;;;6225059;28;20432;-79
2021/08/14 15:03:13;;;;;;;7.35;5.40;;;37.50;31.90;;;;;;6224655;28;20634;-79
2021/08/14 15:06:14;;;;;;;8.90;5.55;;;37.50;32.70;;;;;;6226957;28;20456;-78
2021/08/14 15:09:16;;;;;;;7.38;5.40;;;37.50;32.50;;;;;;6227426;28;20512;-78
2021/08/14 15:12:19;;;;;;;8.38;5.50;;;37.40;32.80;;;;;;6227114;28;20441;-79
2021/08/14 15:15:22;;;;;;;10.85;5.82;;;37.30;32.90;;;;;;6223381;28;20519;-78
2021/08/14 15:18:24;;;;;;;6.13;5.28;;;37.30;32.80;;;;;;6224141;28;20522;-78
2021/08/14 15:21:27;;;;;;;7.20;5.50;;;37.20;33.20;;;;;;6229760;28;20462;-78
2021/08/14 15:24:29;;;;;;;6.40;5.38;;;37.00;33.00;;;;;;6227530;28;20480;-78
2021/08/14 15:27:31;;;;;;;7.70;5.60;;;36.90;33.60;;;;;;6227855;28;20448;-78
2021/08/14 15:30:34;;;;;;;6.55;5.45;;;36.80;33.50;;;;;;6228030;28;20475;-79
2021/08/14 15:33:36;;;;;;;9.35;6.07;;;36.80;34.20;;;;;;6228238;28;20467;-78
2021/08/14 15:36:38;;;;;;;8.50;5.90;;;36.90;34.00;;;;;;6224941;28;20482;-77
2021/08/14 15:39:40;;;;;;;9.18;6.15;;;37.00;33.70;;;;;;6226633;28;20434;-77
2021/08/14 15:42:42;;;;;;;7.45;6.25;;;36.90;33.90;;;;;;6226095;28;20491;-77
2021/08/14 15:45:47;;;;;;;7.40;6.60;;;36.90;34.10;;;;;;6207840;28;20456;-77
2021/08/14 15:48:49;;;;;;;8.18;6.93;;;37.10;33.80;;;;;;6203314;28;20954;-77
2021/08/14 15:51:51;;;;;;;7.22;6.15;;;36.90;33.90;;;;;;6204539;28;20461;-77